createdAt,value
2018-03-29T00:02:14.420Z,42.37
2018-03-29T00:04:40.681Z,44.63
2018-03-29T00:07:07.797Z,41.63
2018-03-29T00:09:34.066Z,42.07
2018-03-29T00:12:01.115Z,42.77
2018-03-29T00:14:28.123Z,41.50
2018-03-29T00:16:54.407Z,39.77
2018-03-29T00:19:20.775Z,40.03
2018-03-29T00:21:47.068Z,39.53
2018-03-29T00:24:13.374Z,37.77
2018-03-29T00:26:39.752Z,38.30
2018-03-29T00:29:06.070Z,37.77
2018-03-29T00:31:32.339Z,40.27
2018-03-29T00:33:58.640Z,35.33
2018-03-29T00:36:24.920Z,35.00
2018-03-29T00:38:51.994Z,34.40
2018-03-29T00:41:18.278Z,32.87
2018-03-29T00:43:44.606Z,31.53
2018-03-29T00:46:10.895Z,28.57
2018-03-29T00:48:37.180Z,23.03
2018-03-29T00:51:03.521Z,17.90
2018-03-29T00:53:44.093Z,9.90
2018-03-29T00:56:10.408Z,7.77
2018-03-29T00:58:36.732Z,4.70
2018-03-29T01:01:03.060Z,4.10
2018-03-29T01:03:29.360Z,3.70
2018-03-29T01:05:55.678Z,3.53
2018-03-29T01:08:21.983Z,2.97
2018-03-29T01:10:48.293Z,2.77
2018-03-29T01:13:14.576Z,3.23
2018-03-29T01:15:40.927Z,2.83
2018-03-29T01:18:07.283Z,2.80
2018-03-29T01:20:33.599Z,2.83
2018-03-29T01:22:59.933Z,2.30
2018-03-29T01:25:26.243Z,3.67
2018-03-29T01:27:52.536Z,4.13
2018-03-29T01:30:18.877Z,4.67
2018-03-29T01:32:45.187Z,4.43
2018-03-29T01:35:11.488Z,4.77
2018-03-29T01:37:37.806Z,4.60
2018-03-29T01:40:04.068Z,3.80
2018-03-29T01:42:30.336Z,3.73
2018-03-29T01:44:56.642Z,3.50
2018-03-29T01:47:22.917Z,2.57
2018-03-29T01:49:49.272Z,2.50
2018-03-29T01:52:15.580Z,2.17
2018-03-29T01:54:41.927Z,2.17
2018-03-29T01:57:08.241Z,2.03
2018-03-29T01:59:34.579Z,3.10
2018-03-29T02:02:00.910Z,2.83
2018-03-29T02:04:27.460Z,3.30
2018-03-29T02:06:53.738Z,6.07
2018-03-29T02:09:20.781Z,6.00
2018-03-29T02:11:47.831Z,6.80
2018-03-29T02:14:14.939Z,7.70
2018-03-29T02:16:41.333Z,8.53
2018-03-29T02:19:07.612Z,8.57
2018-03-29T02:21:33.935Z,8.60
2018-03-29T02:24:00.237Z,9.63
2018-03-29T02:26:26.569Z,10.77
2018-03-29T02:28:53.826Z,9.73
2018-03-29T02:31:20.106Z,9.57
2018-03-29T02:33:46.380Z,9.00
2018-03-29T02:36:12.715Z,9.40
2018-03-29T02:38:39.053Z,11.17
2018-03-29T02:41:05.370Z,9.67
2018-03-29T02:43:31.683Z,10.10
2018-03-29T02:45:58.749Z,9.23
2018-03-29T02:48:25.078Z,10.80
2018-03-29T02:50:51.414Z,9.50
2018-03-29T02:53:17.712Z,10.77
2018-03-29T02:55:43.975Z,9.57
2018-03-29T02:58:10.241Z,10.97
2018-03-29T03:00:36.604Z,10.17
2018-03-29T03:03:03.621Z,9.90
2018-03-29T03:05:29.950Z,12.30
2018-03-29T03:07:56.226Z,11.57
2018-03-29T03:10:22.593Z,10.87
2018-03-29T03:12:48.891Z,12.00
2018-03-29T03:15:16.126Z,11.00
2018-03-29T03:17:43.156Z,12.97
2018-03-29T03:20:09.445Z,11.80
2018-03-29T03:22:35.722Z,11.13
2018-03-29T03:25:02.755Z,13.17
2018-03-29T03:27:29.047Z,12.90
2018-03-29T03:29:55.340Z,11.63
2018-03-29T03:32:22.407Z,13.10
2018-03-29T03:34:48.696Z,12.80
2018-03-29T03:37:15.016Z,14.17
2018-03-29T03:39:41.372Z,13.70
2018-03-29T03:42:07.679Z,12.90
2018-03-29T03:44:34.157Z,13.23
2018-03-29T03:47:00.519Z,12.60
2018-03-29T03:49:27.673Z,13.63
2018-03-29T03:51:53.941Z,14.20
2018-03-29T03:54:21.175Z,12.30
2018-03-29T03:56:47.479Z,12.83
2018-03-29T03:59:13.793Z,13.50
2018-03-29T04:01:40.152Z,14.90
2018-03-29T04:04:06.436Z,14.50
2018-03-29T04:06:32.741Z,14.57
2018-03-29T04:08:59.043Z,15.57
2018-03-29T04:11:25.372Z,18.23
2018-03-29T04:13:51.790Z,17.60
2018-03-29T04:16:18.406Z,18.67
2018-03-29T04:18:45.454Z,19.07
2018-03-29T04:21:11.739Z,17.57
2018-03-29T04:23:38.022Z,20.63
2018-03-29T04:26:05.041Z,19.50
2018-03-29T04:28:31.318Z,18.67
2018-03-29T04:30:57.822Z,17.83
2018-03-29T04:33:24.863Z,19.37
2018-03-29T04:35:51.848Z,19.57
2018-03-29T04:38:18.151Z,18.93
2018-03-29T04:40:45.190Z,18.40
2018-03-29T04:43:11.763Z,17.67
2018-03-29T04:45:38.097Z,18.10
2018-03-29T04:48:04.373Z,18.60
2018-03-29T04:50:30.657Z,18.20
2018-03-29T04:52:56.931Z,18.23
2018-03-29T04:55:23.226Z,16.73
2018-03-29T04:57:49.573Z,16.93
2018-03-29T05:00:15.907Z,20.33
2018-03-29T05:02:42.195Z,17.93
2018-03-29T05:05:08.446Z,20.33
2018-03-29T05:07:34.779Z,16.80
2018-03-29T05:10:01.068Z,19.00
2018-03-29T05:12:28.104Z,16.97
2018-03-29T05:14:54.410Z,17.03
2018-03-29T05:17:20.736Z,15.50
2018-03-29T05:19:47.045Z,12.60
2018-03-29T05:22:13.834Z,11.47
2018-03-29T05:24:40.090Z,13.60
2018-03-29T05:27:13.280Z,13.60
2018-03-29T05:29:39.544Z,13.93
2018-03-29T05:32:05.866Z,12.70
2018-03-29T05:34:32.126Z,12.77
2018-03-29T05:36:58.480Z,13.40
2018-03-29T05:39:24.751Z,12.50
2018-03-29T05:41:51.083Z,10.00
2018-03-29T05:44:17.396Z,9.10
2018-03-29T05:46:43.716Z,9.20
2018-03-29T05:49:09.965Z,9.23
2018-03-29T05:51:36.286Z,8.60
2018-03-29T05:54:02.573Z,8.73
2018-03-29T05:56:28.907Z,9.03
2018-03-29T05:58:55.210Z,10.50
2018-03-29T06:01:21.898Z,8.87
2018-03-29T06:03:48.143Z,9.90
2018-03-29T06:06:15.171Z,9.60
2018-03-29T06:08:41.554Z,9.10
2018-03-29T06:11:07.923Z,9.13
2018-03-29T06:13:34.326Z,10.50
2018-03-29T06:16:04.576Z,9.17
2018-03-29T06:18:31.744Z,9.90
2018-03-29T06:20:58.180Z,9.90
2018-03-29T06:23:24.459Z,9.70
2018-03-29T06:25:50.711Z,8.57
2018-03-29T06:28:17.014Z,8.00
2018-03-29T06:30:44.883Z,10.37
2018-03-29T06:33:11.198Z,8.43
2018-03-29T06:35:37.487Z,9.50
2018-03-29T06:38:03.856Z,10.03
2018-03-29T06:40:30.179Z,8.17
2018-03-29T06:42:57.263Z,9.43
2018-03-29T06:45:23.563Z,4.70
2018-03-29T06:47:50.649Z,3.50
2018-03-29T06:50:16.984Z,3.13
2018-03-29T06:52:43.260Z,3.20
2018-03-29T06:55:10.304Z,2.50
2018-03-29T06:57:36.586Z,2.77
2018-03-29T07:00:03.219Z,3.03
2018-03-29T07:02:29.520Z,2.50
2018-03-29T07:04:55.824Z,2.60
2018-03-29T07:07:22.142Z,2.67
2018-03-29T07:09:48.405Z,2.50
2018-03-29T07:12:14.692Z,3.07
2018-03-29T07:14:40.999Z,3.00
2018-03-29T07:17:07.295Z,3.20
2018-03-29T07:19:34.312Z,3.77
2018-03-29T07:22:00.663Z,2.80
2018-03-29T07:24:27.745Z,2.07
2018-03-29T07:26:54.061Z,2.47
2018-03-29T07:29:20.366Z,2.13
2018-03-29T07:31:46.664Z,2.20
2018-03-29T07:34:12.963Z,2.63
2018-03-29T07:36:39.242Z,2.87
2018-03-29T07:39:05.530Z,2.80
2018-03-29T07:41:31.851Z,2.37
2018-03-29T07:43:58.134Z,2.37
2018-03-29T07:46:24.395Z,3.00
2018-03-29T07:48:52.418Z,2.47
2018-03-29T07:51:18.716Z,2.33
2018-03-29T07:53:44.992Z,2.30
2018-03-29T07:56:11.305Z,2.80
2018-03-29T07:58:37.568Z,2.83
2018-03-29T08:01:03.882Z,3.47
2018-03-29T08:03:30.222Z,3.30
2018-03-29T08:05:56.530Z,3.77
2018-03-29T08:08:22.865Z,3.70
2018-03-29T08:10:49.119Z,3.27
2018-03-29T08:13:15.419Z,3.77
2018-03-29T08:15:41.768Z,4.40
2018-03-29T08:18:08.073Z,3.93
2018-03-29T08:20:34.365Z,4.20
2018-03-29T08:23:01.423Z,4.37
2018-03-29T08:25:27.777Z,4.77
2018-03-29T08:27:54.045Z,4.57
2018-03-29T08:30:20.354Z,4.50
2018-03-29T08:32:53.724Z,4.53
2018-03-29T08:35:20.100Z,4.97
2018-03-29T08:37:46.418Z,5.87
2018-03-29T08:40:12.737Z,5.37
2018-03-29T08:42:39.017Z,4.83
2018-03-29T08:45:06.081Z,5.43
2018-03-29T08:47:32.349Z,5.53
2018-03-29T08:49:58.709Z,4.90
2018-03-29T08:52:24.997Z,4.90
2018-03-29T08:54:51.271Z,5.10
2018-03-29T08:57:17.573Z,4.97
2018-03-29T08:59:43.888Z,5.20
2018-03-29T09:02:10.158Z,5.57
2018-03-29T09:04:36.624Z,5.00
2018-03-29T09:07:04.000Z,5.70
2018-03-29T09:09:30.300Z,4.20
2018-03-29T09:11:57.310Z,4.97
2018-03-29T09:14:23.594Z,5.60
2018-03-29T09:16:49.882Z,4.33
2018-03-29T09:19:16.148Z,5.23
2018-03-29T09:21:43.271Z,5.13
2018-03-29T09:24:09.529Z,4.57
2018-03-29T09:26:35.803Z,4.33
2018-03-29T09:29:02.067Z,3.67
2018-03-29T09:31:29.154Z,4.03
2018-03-29T09:33:55.424Z,2.50
2018-03-29T09:36:21.759Z,3.53
2018-03-29T09:38:48.051Z,3.33
2018-03-29T09:41:14.393Z,3.13
2018-03-29T09:43:40.691Z,3.43
2018-03-29T09:46:07.760Z,3.00
2018-03-29T09:48:34.059Z,3.13
2018-03-29T09:51:01.096Z,2.47
2018-03-29T09:53:28.152Z,3.20
2018-03-29T09:55:55.166Z,2.23
2018-03-29T09:58:21.466Z,2.90
2018-03-29T10:00:47.706Z,2.70
2018-03-29T10:03:13.939Z,2.47
2018-03-29T10:05:40.224Z,2.10
2018-03-29T10:08:06.655Z,2.20
2018-03-29T10:10:33.657Z,2.10
2018-03-29T10:12:59.920Z,3.07
2018-03-29T10:15:26.282Z,2.63
2018-03-29T10:17:52.572Z,3.13
2018-03-29T10:20:18.891Z,2.60
2018-03-29T10:22:45.215Z,2.87
2018-03-29T10:25:11.503Z,2.70
2018-03-29T10:27:37.739Z,2.40
2018-03-29T10:30:04.009Z,3.20
2018-03-29T10:32:30.311Z,2.33
2018-03-29T10:34:56.554Z,2.43
2018-03-29T10:37:22.860Z,2.97
2018-03-29T10:39:49.119Z,3.60
2018-03-29T10:42:15.926Z,6.33
2018-03-29T10:44:42.266Z,7.27
2018-03-29T10:47:08.584Z,5.93
2018-03-29T10:49:34.836Z,3.60
2018-03-29T10:52:01.174Z,3.50
2018-03-29T10:54:28.420Z,3.00
2018-03-29T10:56:54.730Z,2.80
2018-03-29T10:59:20.979Z,3.23
2018-03-29T11:01:47.309Z,3.00
2018-03-29T11:04:13.590Z,3.20
2018-03-29T11:06:39.969Z,3.00
2018-03-29T11:09:06.933Z,2.00
2018-03-29T11:11:34.000Z,3.10
2018-03-29T11:14:00.256Z,3.00
2018-03-29T11:16:27.317Z,3.17
2018-03-29T11:18:54.317Z,2.50
2018-03-29T11:21:21.464Z,2.00
2018-03-29T11:23:47.783Z,2.43
2018-03-29T11:26:14.109Z,2.20
2018-03-29T11:28:40.777Z,2.30
2018-03-29T11:31:07.124Z,3.00
2018-03-29T11:33:33.413Z,2.97
2018-03-29T11:35:59.712Z,2.60
2018-03-29T11:38:26.088Z,2.37
2018-03-29T11:40:52.440Z,3.03
2018-03-29T11:43:18.750Z,2.80
2018-03-29T11:45:45.060Z,2.70
2018-03-29T11:48:11.388Z,3.00
2018-03-29T11:50:37.676Z,2.37
2018-03-29T11:53:03.953Z,2.03
2018-03-29T11:55:30.197Z,3.30
2018-03-29T11:57:56.512Z,2.43
2018-03-29T12:00:22.828Z,2.73
2018-03-29T12:02:49.137Z,2.10
2018-03-29T12:05:16.162Z,2.50
2018-03-29T12:07:42.423Z,2.90
2018-03-29T12:10:09.511Z,3.63
2018-03-29T12:12:35.813Z,2.20
2018-03-29T12:15:02.133Z,2.70
2018-03-29T12:17:29.202Z,1.63
2018-03-29T12:19:55.507Z,2.97
2018-03-29T12:22:22.600Z,2.23
2018-03-29T12:24:48.929Z,2.53
2018-03-29T12:27:15.224Z,2.40
2018-03-29T12:29:42.875Z,3.00
2018-03-29T12:32:09.904Z,3.53
2018-03-29T12:34:37.212Z,4.67
2018-03-29T12:37:03.530Z,3.90
2018-03-29T12:39:29.860Z,4.37
2018-03-29T12:41:56.207Z,4.20
2018-03-29T12:44:22.519Z,3.90
2018-03-29T12:46:48.827Z,3.80
2018-03-29T12:49:15.139Z,4.17
2018-03-29T12:51:41.426Z,3.20
2018-03-29T12:54:14.816Z,3.10
2018-03-29T12:56:59.663Z,3.77
2018-03-29T12:59:26.749Z,4.27
2018-03-29T13:01:53.036Z,4.50
2018-03-29T13:04:20.179Z,4.50
2018-03-29T13:06:47.231Z,5.00
2018-03-29T13:09:14.310Z,4.60
2018-03-29T13:11:40.586Z,4.60
2018-03-29T13:14:06.908Z,5.00
2018-03-29T13:16:33.238Z,5.60
2018-03-29T13:18:59.604Z,4.73
2018-03-29T13:21:26.688Z,4.80
2018-03-29T13:23:53.008Z,5.50
2018-03-29T13:26:19.264Z,4.93
2018-03-29T13:28:45.632Z,4.47
2018-03-29T13:31:11.996Z,5.03
2018-03-29T13:33:38.355Z,4.90
2018-03-29T13:39:05.264Z,5.77
2018-03-29T13:41:35.456Z,4.67
2018-03-29T13:44:20.109Z,5.37
2018-03-29T13:46:46.497Z,5.53
2018-03-29T13:49:13.752Z,5.00
2018-03-29T13:51:40.808Z,5.37
2018-03-29T13:54:07.756Z,6.17
2018-03-29T13:56:34.118Z,5.10
2018-03-29T13:59:00.346Z,5.20
2018-03-29T14:01:26.656Z,5.33
2018-03-29T14:03:53.280Z,4.87
2018-03-29T14:06:19.621Z,5.20
2018-03-29T14:08:45.980Z,5.40
2018-03-29T14:11:12.428Z,4.30
2018-03-29T14:13:39.457Z,5.50
2018-03-29T14:16:05.774Z,5.60
2018-03-29T14:18:32.091Z,5.37
2018-03-29T14:20:58.379Z,4.83
2018-03-29T14:23:24.619Z,5.70
2018-03-29T14:25:50.863Z,5.30
2018-03-29T14:28:17.901Z,5.93
2018-03-29T14:30:44.974Z,5.53
2018-03-29T14:33:11.264Z,4.40
2018-03-29T14:35:37.553Z,5.53
2018-03-29T14:38:03.830Z,5.47
2018-03-29T14:40:30.132Z,5.63
2018-03-29T14:42:56.424Z,5.90
2018-03-29T14:45:22.756Z,5.67
2018-03-29T14:47:49.256Z,5.53
2018-03-29T14:50:16.521Z,5.97
2018-03-29T14:52:42.900Z,5.30
2018-03-29T14:55:09.287Z,5.80
2018-03-29T14:57:35.652Z,5.33
2018-03-29T15:00:02.039Z,5.47
2018-03-29T15:02:28.368Z,7.70
2018-03-29T15:04:54.669Z,5.60
2018-03-29T15:07:20.977Z,6.10
2018-03-29T15:09:48.191Z,5.77
2018-03-29T15:12:14.495Z,6.33
2018-03-29T15:14:41.157Z,6.20
2018-03-29T15:17:07.489Z,5.90
2018-03-29T15:19:33.867Z,6.07
2018-03-29T15:22:00.966Z,6.03
2018-03-29T15:24:27.612Z,5.87
2018-03-29T15:26:54.669Z,6.97
2018-03-29T15:29:21.692Z,5.80
2018-03-29T15:31:47.977Z,6.90
2018-03-29T15:34:15.213Z,5.97
2018-03-29T15:36:42.228Z,6.83
2018-03-29T15:39:08.541Z,6.33
2018-03-29T15:41:35.182Z,7.10
2018-03-29T15:44:01.453Z,7.10
2018-03-29T15:46:28.450Z,7.07
2018-03-29T15:48:54.868Z,6.83
2018-03-29T15:51:21.143Z,6.83
2018-03-29T15:53:48.277Z,6.60
2018-03-29T15:56:14.564Z,6.70
2018-03-29T15:58:40.881Z,7.17
2018-03-29T16:01:07.165Z,7.73
2018-03-29T16:03:34.445Z,7.30
2018-03-29T16:06:01.576Z,7.07
2018-03-29T16:08:27.854Z,7.57
2018-03-29T16:10:54.214Z,7.63
2018-03-29T16:13:20.504Z,7.70
2018-03-29T16:15:47.956Z,7.73
2018-03-29T16:18:14.989Z,8.00
2018-03-29T16:20:41.385Z,7.10
2018-03-29T16:23:07.632Z,7.63
2018-03-29T16:25:34.164Z,7.13
2018-03-29T16:28:00.447Z,7.20
2018-03-29T16:30:26.784Z,7.73
2018-03-29T16:32:53.075Z,7.47
2018-03-29T16:35:20.431Z,7.30
2018-03-29T16:37:46.779Z,6.40
2018-03-29T16:40:13.094Z,7.10
2018-03-29T16:42:40.893Z,7.60
2018-03-29T16:45:07.194Z,7.10
2018-03-29T16:47:34.248Z,7.53
2018-03-29T16:50:00.569Z,7.87
2018-03-29T16:52:27.936Z,8.00
2018-03-29T16:54:55.012Z,8.70
2018-03-29T16:57:21.320Z,9.00
2018-03-29T16:59:48.389Z,10.00
2018-03-29T17:02:14.686Z,8.97
2018-03-29T17:04:41.852Z,8.70
2018-03-29T17:07:08.893Z,8.30
2018-03-29T17:09:36.547Z,8.83
2018-03-29T17:12:04.595Z,9.07
2018-03-29T17:14:30.877Z,9.40
2018-03-29T17:16:57.210Z,10.07
2018-03-29T17:19:23.557Z,8.20
2018-03-29T17:21:49.892Z,8.63
2018-03-29T17:24:16.198Z,10.13
2018-03-29T17:26:42.507Z,9.33
2018-03-29T17:29:09.513Z,8.20
2018-03-29T17:31:35.892Z,8.40
2018-03-29T17:34:02.950Z,7.40
2018-03-29T17:36:29.226Z,7.63
2018-03-29T17:38:55.499Z,8.27
2018-03-29T17:41:22.579Z,9.00
2018-03-29T17:43:48.884Z,7.20
2018-03-29T17:46:15.216Z,7.27
2018-03-29T17:48:41.503Z,6.90
2018-03-29T17:51:07.749Z,8.77
2018-03-29T17:53:34.279Z,7.50
2018-03-29T17:56:00.614Z,7.80
2018-03-29T17:58:26.879Z,7.50
2018-03-29T18:00:53.955Z,7.70
2018-03-29T18:03:20.284Z,7.50
2018-03-29T18:05:46.607Z,9.10
2018-03-29T18:08:12.893Z,11.57
2018-03-29T18:10:39.280Z,12.87
2018-03-29T18:13:05.644Z,10.57
2018-03-29T18:15:32.080Z,10.70
2018-03-29T18:17:58.480Z,9.30
2018-03-29T18:20:24.852Z,8.70
2018-03-29T18:22:51.266Z,10.00
2018-03-29T18:25:17.575Z,9.90
2018-03-29T18:27:45.089Z,9.10
2018-03-29T18:30:12.087Z,9.83
2018-03-29T18:32:38.431Z,8.57
2018-03-29T18:35:04.773Z,9.27
2018-03-29T18:37:31.239Z,10.70
2018-03-29T18:39:59.183Z,14.00
2018-03-29T18:42:25.533Z,13.10
2018-03-29T18:44:51.812Z,11.83
2018-03-29T18:47:18.143Z,11.90
2018-03-29T18:49:44.428Z,12.10
2018-03-29T18:52:11.494Z,13.60
2018-03-29T18:54:38.557Z,12.77
2018-03-29T18:57:04.846Z,10.43
2018-03-29T18:59:31.143Z,11.00
2018-03-29T19:01:57.454Z,10.30
2018-03-29T19:04:23.765Z,9.17
2018-03-29T19:06:50.092Z,9.50
2018-03-29T19:09:16.442Z,8.87
2018-03-29T19:11:42.801Z,9.20
2018-03-29T19:14:09.379Z,9.00
2018-03-29T19:16:36.415Z,11.13
2018-03-29T19:19:02.726Z,10.87
2018-03-29T19:21:29.153Z,10.83
2018-03-29T19:23:56.380Z,12.40
2018-03-29T19:26:22.693Z,13.90
2018-03-29T19:28:49.049Z,16.50
2018-03-29T19:31:15.386Z,14.60
2018-03-29T19:33:41.680Z,13.80
2018-03-29T19:36:08.032Z,15.67
2018-03-29T19:38:34.352Z,14.47
2018-03-29T19:41:00.647Z,16.20
2018-03-29T19:43:27.020Z,16.43
2018-03-29T19:45:53.377Z,15.80
2018-03-29T19:48:19.666Z,17.87
2018-03-29T19:50:45.926Z,17.90
2018-03-29T19:53:12.269Z,19.93
2018-03-29T19:55:38.568Z,19.30
2018-03-29T19:58:04.853Z,18.40
2018-03-29T20:00:31.158Z,17.20
2018-03-29T20:02:57.491Z,18.30
2018-03-29T20:05:24.633Z,16.93
2018-03-29T20:07:50.919Z,18.13
2018-03-29T20:10:17.969Z,19.60
2018-03-29T20:12:45.098Z,17.67
2018-03-29T20:15:11.363Z,17.27
2018-03-29T20:17:38.467Z,18.20
2018-03-29T20:20:05.511Z,18.30
2018-03-29T20:22:31.894Z,18.30
2018-03-29T20:24:58.155Z,20.27
2018-03-29T20:27:24.498Z,17.70
2018-03-29T20:29:50.780Z,19.07
2018-03-29T20:32:17.864Z,19.03
2018-03-29T20:34:44.170Z,18.97
2018-03-29T20:37:10.485Z,19.80
2018-03-29T20:39:37.548Z,20.57
2018-03-29T20:42:03.888Z,23.43
2018-03-29T20:44:30.117Z,21.83
2018-03-29T20:46:56.459Z,22.67
2018-03-29T20:49:22.729Z,22.30
2018-03-29T20:51:49.020Z,23.57
2018-03-29T20:54:16.085Z,21.13
2018-03-29T20:56:42.371Z,19.70
2018-03-29T20:59:09.447Z,19.17
2018-03-29T21:01:35.739Z,20.00
2018-03-29T21:04:02.787Z,22.20
2018-03-29T21:06:29.832Z,19.47
2018-03-29T21:08:56.842Z,20.30
2018-03-29T21:11:23.176Z,17.23
2018-03-29T21:13:49.470Z,18.47
2018-03-29T21:16:15.803Z,18.53
2018-03-29T21:18:42.134Z,17.83
2018-03-29T21:21:08.450Z,19.63
2018-03-29T21:23:35.488Z,16.90
2018-03-29T21:26:02.512Z,17.63
2018-03-29T21:28:28.800Z,15.87
2018-03-29T21:30:55.077Z,17.63
2018-03-29T21:33:21.407Z,17.90
2018-03-29T21:35:48.874Z,18.50
2018-03-29T21:38:16.220Z,19.73
2018-03-29T21:40:42.463Z,20.00
2018-03-29T21:43:09.544Z,19.40
2018-03-29T21:45:35.790Z,18.70
2018-03-29T21:48:02.096Z,18.93
2018-03-29T21:50:28.436Z,20.10
2018-03-29T21:52:54.692Z,20.50
2018-03-29T21:55:20.989Z,19.40
2018-03-29T21:57:47.356Z,19.97
2018-03-29T22:00:13.634Z,19.23
2018-03-29T22:02:40.638Z,20.10
2018-03-29T22:05:06.945Z,21.30
2018-03-29T22:07:33.228Z,20.90
2018-03-29T22:09:59.551Z,19.97
2018-03-29T22:12:25.837Z,21.90
2018-03-29T22:14:52.138Z,20.73
2018-03-29T22:17:18.456Z,20.57
2018-03-29T22:19:44.760Z,21.27
2018-03-29T22:22:11.102Z,22.60
2018-03-29T22:24:37.376Z,22.63
2018-03-29T22:27:03.681Z,23.20
2018-03-29T22:29:30.748Z,21.90
2018-03-29T22:31:57.061Z,23.63
2018-03-29T22:34:24.149Z,21.63
2018-03-29T22:36:50.427Z,25.30
2018-03-29T22:39:16.791Z,23.10
2018-03-29T22:41:43.104Z,23.20
2018-03-29T22:44:10.199Z,21.67
2018-03-29T22:46:36.456Z,22.20
2018-03-29T22:49:02.785Z,23.17
2018-03-29T22:51:29.092Z,20.80
2018-03-29T22:53:55.417Z,22.10
2018-03-29T22:56:21.748Z,20.43
2018-03-29T22:58:48.012Z,22.40
2018-03-29T23:01:14.272Z,19.80
2018-03-29T23:03:41.281Z,20.60
2018-03-29T23:06:07.617Z,22.00
2018-03-29T23:08:33.877Z,21.23
2018-03-29T23:11:00.925Z,20.77
2018-03-29T23:13:27.938Z,22.03
2018-03-29T23:15:54.179Z,20.07
2018-03-29T23:18:20.462Z,20.60
2018-03-29T23:20:46.767Z,21.00
2018-03-29T23:23:13.791Z,22.03
2018-03-29T23:25:40.116Z,19.20
2018-03-29T23:28:06.355Z,20.00
2018-03-29T23:30:32.663Z,22.33
2018-03-29T23:32:59.729Z,22.00
2018-03-29T23:35:25.990Z,20.83
2018-03-29T23:37:52.684Z,22.80
2018-03-29T23:40:18.946Z,22.97
2018-03-29T23:42:45.966Z,23.20
2018-03-29T23:45:12.282Z,23.23
2018-03-29T23:47:38.541Z,19.70
2018-03-29T23:50:04.841Z,17.27
2018-03-29T23:52:31.166Z,16.20
2018-03-29T23:54:57.467Z,16.33
2018-03-29T23:57:23.835Z,15.10
2018-03-29T23:59:50.946Z,15.67
